sensor_id;sensor_type;location;lat;lon;timestamp;pressure;altitude;pressure_sealevel;temperature;humidity
78909;BME280;68298;37.368;127.108;2023-05-24T00:01:49;100399.31;;;30.07;27.74
78909;BME280;68298;37.368;127.108;2023-05-24T00:04:37;100407.84;;;30.75;26.66
78909;BME280;68298;37.368;127.108;2023-05-24T00:07:09;100404.75;;;29.77;28.15
78909;BME280;68298;37.368;127.108;2023-05-24T00:09:40;100403.53;;;29.50;28.86
78909;BME280;68298;37.368;127.108;2023-05-24T00:12:10;100394.09;;;30.78;27.00
78909;BME280;68298;37.368;127.108;2023-05-24T00:14:40;100398.09;;;29.88;27.72
78909;BME280;68298;37.368;127.108;2023-05-24T00:17:11;100395.25;;;29.75;28.34
78909;BME280;68298;37.368;127.108;2023-05-24T00:19:41;100403.63;;;30.23;27.80
78909;BME280;68298;37.368;127.108;2023-05-24T00:22:12;100386.03;;;32.63;24.13
78909;BME280;68298;37.368;127.108;2023-05-24T00:24:42;100371.66;;;33.49;23.51
78909;BME280;68298;37.368;127.108;2023-05-24T00:27:14;100374.94;;;34.65;21.96
78909;BME280;68298;37.368;127.108;2023-05-24T00:29:44;100377.16;;;32.49;25.06
78909;BME280;68298;37.368;127.108;2023-05-24T00:32:15;100388.41;;;31.57;26.62
78909;BME280;68298;37.368;127.108;2023-05-24T00:34:48;100388.09;;;32.41;25.85
78909;BME280;68298;37.368;127.108;2023-05-24T00:37:21;100394.44;;;32.27;25.46
78909;BME280;68298;37.368;127.108;2023-05-24T00:39:52;100393.97;;;31.49;26.64
78909;BME280;68298;37.368;127.108;2023-05-24T00:42:23;100388.03;;;32.28;25.72
78909;BME280;68298;37.368;127.108;2023-05-24T00:44:53;100394.31;;;33.01;24.92
78909;BME280;68298;37.368;127.108;2023-05-24T00:47:23;100400.66;;;32.67;26.22
78909;BME280;68298;37.368;127.108;2023-05-24T00:49:54;100384.97;;;33.17;24.55
78909;BME280;68298;37.368;127.108;2023-05-24T00:52:25;100388.22;;;31.58;27.45
78909;BME280;68298;37.368;127.108;2023-05-24T00:54:56;100384.22;;;31.41;28.30
78909;BME280;68298;37.368;127.108;2023-05-24T00:57:27;100378.44;;;33.64;24.28
78909;BME280;68298;37.368;127.108;2023-05-24T00:59:59;100383.94;;;33.83;24.02
78909;BME280;68298;37.368;127.108;2023-05-24T01:02:30;100390.41;;;31.89;26.69
78909;BME280;68298;37.368;127.108;2023-05-24T01:05:01;100395.31;;;32.74;25.67
78909;BME280;68298;37.368;127.108;2023-05-24T01:13:26;100387.78;;;32.03;27.34
78909;BME280;68298;37.368;127.108;2023-05-24T01:16:00;100393.41;;;32.21;27.19
78909;BME280;68298;37.368;127.108;2023-05-24T01:18:39;100403.22;;;31.18;28.66
78909;BME280;68298;37.368;127.108;2023-05-24T01:29:13;100393.13;;;31.48;28.05
78909;BME280;68298;37.368;127.108;2023-05-24T01:31:44;100387.34;;;31.99;27.19
78909;BME280;68298;37.368;127.108;2023-05-24T01:34:17;100394.81;;;30.44;29.64
78909;BME280;68298;37.368;127.108;2023-05-24T01:36:47;100396.44;;;30.45;29.31
78909;BME280;68298;37.368;127.108;2023-05-24T01:39:19;100387.28;;;32.54;26.51
78909;BME280;68298;37.368;127.108;2023-05-24T01:42:18;100391.19;;;32.45;26.38
78909;BME280;68298;37.368;127.108;2023-05-24T01:48:04;100411.47;;;30.67;29.56
78909;BME280;68298;37.368;127.108;2023-05-24T01:50:51;100393.66;;;33.12;25.48
78909;BME280;68298;37.368;127.108;2023-05-24T01:53:25;100405.34;;;30.30;29.79
78909;BME280;68298;37.368;127.108;2023-05-24T01:56:03;100403.53;;;29.95;29.86
78909;BME280;68298;37.368;127.108;2023-05-24T01:58:35;100413.22;;;29.81;30.25
78909;BME280;68298;37.368;127.108;2023-05-24T02:01:08;100399.53;;;30.05;29.68
78909;BME280;68298;37.368;127.108;2023-05-24T02:03:40;100395.09;;;29.98;30.38
78909;BME280;68298;37.368;127.108;2023-05-24T02:06:10;100397.13;;;30.32;29.29
78909;BME280;68298;37.368;127.108;2023-05-24T02:08:40;100401.16;;;29.55;30.59
78909;BME280;68298;37.368;127.108;2023-05-24T02:11:11;100394.91;;;29.48;31.33
78909;BME280;68298;37.368;127.108;2023-05-24T02:13:42;100399.78;;;28.92;31.86
78909;BME280;68298;37.368;127.108;2023-05-24T02:16:12;100400.94;;;29.12;31.50
78909;BME280;68298;37.368;127.108;2023-05-24T02:19:01;100404.63;;;28.74;32.09
78909;BME280;68298;37.368;127.108;2023-05-24T02:21:49;100398.59;;;28.80;32.06
78909;BME280;68298;37.368;127.108;2023-05-24T02:24:20;100401.44;;;29.60;30.05
78909;BME280;68298;37.368;127.108;2023-05-24T02:26:50;100395.91;;;29.47;30.32
78909;BME280;68298;37.368;127.108;2023-05-24T02:29:21;100385.25;;;29.32;30.28
78909;BME280;68298;37.368;127.108;2023-05-24T02:31:52;100394.69;;;29.05;30.88
78909;BME280;68298;37.368;127.108;2023-05-24T02:34:25;100401.09;;;28.58;31.47
78909;BME280;68298;37.368;127.108;2023-05-24T02:36:56;100388.28;;;29.29;31.05
78909;BME280;68298;37.368;127.108;2023-05-24T02:39:26;100399.53;;;28.18;32.25
78909;BME280;68298;37.368;127.108;2023-05-24T02:41:57;100385.53;;;28.85;31.37
78909;BME280;68298;37.368;127.108;2023-05-24T02:44:27;100382.38;;;29.04;30.93
78909;BME280;68298;37.368;127.108;2023-05-24T02:46:58;100387.75;;;28.58;31.66
78909;BME280;68298;37.368;127.108;2023-05-24T02:49:29;100398.94;;;29.00;30.44
78909;BME280;68298;37.368;127.108;2023-05-24T02:51:59;100390.44;;;28.96;30.42
78909;BME280;68298;37.368;127.108;2023-05-24T02:54:29;100388.66;;;28.88;30.37
78909;BME280;68298;37.368;127.108;2023-05-24T02:57:00;100375.75;;;29.15;30.47
78909;BME280;68298;37.368;127.108;2023-05-24T02:59:32;100383.94;;;28.99;30.59
78909;BME280;68298;37.368;127.108;2023-05-24T03:02:03;100379.38;;;28.84;30.95
78909;BME280;68298;37.368;127.108;2023-05-24T03:04:34;100373.53;;;29.78;28.88
78909;BME280;68298;37.368;127.108;2023-05-24T03:07:05;100390.09;;;28.30;31.51
78909;BME280;68298;37.368;127.108;2023-05-24T03:09:35;100382.91;;;28.62;31.09
78909;BME280;68298;37.368;127.108;2023-05-24T03:12:24;100375.84;;;28.84;29.88
78909;BME280;68298;37.368;127.108;2023-05-24T03:14:55;100374.97;;;28.54;30.37
78909;BME280;68298;37.368;127.108;2023-05-24T03:17:25;100370.03;;;29.77;28.82
78909;BME280;68298;37.368;127.108;2023-05-24T03:19:56;100371.31;;;29.22;29.89
78909;BME280;68298;37.368;127.108;2023-05-24T03:22:44;100367.25;;;28.59;30.80
78909;BME280;68298;37.368;127.108;2023-05-24T03:25:15;100365.97;;;28.55;30.62
78909;BME280;68298;37.368;127.108;2023-05-24T03:27:46;100359.97;;;28.76;30.40
78909;BME280;68298;37.368;127.108;2023-05-24T03:30:18;100362.63;;;28.76;29.93
78909;BME280;68298;37.368;127.108;2023-05-24T03:32:53;100360.53;;;28.48;30.58
78909;BME280;68298;37.368;127.108;2023-05-24T03:35:23;100356.47;;;28.37;31.26
78909;BME280;68298;37.368;127.108;2023-05-24T03:37:55;100353.88;;;28.21;30.91
78909;BME280;68298;37.368;127.108;2023-05-24T03:40:27;100344.28;;;28.58;29.83
78909;BME280;68298;37.368;127.108;2023-05-24T03:43:12;100340.53;;;29.85;28.15
78909;BME280;68298;37.368;127.108;2023-05-24T03:45:50;100340.16;;;28.32;31.50
78909;BME280;68298;37.368;127.108;2023-05-24T03:48:21;100345.91;;;28.44;30.65
78909;BME280;68298;37.368;127.108;2023-05-24T03:50:52;100335.56;;;29.02;29.74
78909;BME280;68298;37.368;127.108;2023-05-24T03:53:22;100327.63;;;31.44;26.78
78909;BME280;68298;37.368;127.108;2023-05-24T03:55:54;100324.91;;;31.99;25.68
78909;BME280;68298;37.368;127.108;2023-05-24T03:58:24;100323.25;;;31.36;26.20
78909;BME280;68298;37.368;127.108;2023-05-24T04:00:55;100324.69;;;30.98;26.86
78909;BME280;68298;37.368;127.108;2023-05-24T04:03:26;100329.38;;;30.39;28.34
78909;BME280;68298;37.368;127.108;2023-05-24T04:05:57;100328.81;;;31.35;26.80
78909;BME280;68298;37.368;127.108;2023-05-24T04:08:27;100316.06;;;32.84;24.31
78909;BME280;68298;37.368;127.108;2023-05-24T04:10:58;100308.41;;;34.98;21.59
78909;BME280;68298;37.368;127.108;2023-05-24T04:13:29;100323.19;;;33.24;23.18
78909;BME280;68298;37.368;127.108;2023-05-24T04:15:59;100329.88;;;32.94;23.80
78909;BME280;68298;37.368;127.108;2023-05-24T04:18:30;100318.94;;;33.03;23.47
78909;BME280;68298;37.368;127.108;2023-05-24T04:21:00;100311.59;;;34.13;22.38
78909;BME280;68298;37.368;127.108;2023-05-24T04:23:31;100319.81;;;33.41;23.34
78909;BME280;68298;37.368;127.108;2023-05-24T04:26:02;100317.41;;;33.27;23.24
78909;BME280;68298;37.368;127.108;2023-05-24T04:28:32;100311.81;;;33.80;22.29
78909;BME280;68298;37.368;127.108;2023-05-24T04:31:07;100321.84;;;32.88;23.93
78909;BME280;68298;37.368;127.108;2023-05-24T04:33:39;100325.66;;;33.77;22.99
78909;BME280;68298;37.368;127.108;2023-05-24T04:36:10;100319.81;;;33.86;22.75
78909;BME280;68298;37.368;127.108;2023-05-24T04:38:42;100325.19;;;33.41;23.45
78909;BME280;68298;37.368;127.108;2023-05-24T04:41:14;100318.97;;;33.54;23.75
78909;BME280;68298;37.368;127.108;2023-05-24T04:43:45;100320.66;;;34.18;22.33
78909;BME280;68298;37.368;127.108;2023-05-24T04:46:15;100314.56;;;33.66;23.31
78909;BME280;68298;37.368;127.108;2023-05-24T04:48:46;100314.50;;;33.80;23.21
78909;BME280;68298;37.368;127.108;2023-05-24T04:51:17;100312.34;;;34.52;22.84
78909;BME280;68298;37.368;127.108;2023-05-24T04:53:47;100306.94;;;34.27;23.24
78909;BME280;68298;37.368;127.108;2023-05-24T04:56:18;100308.72;;;33.25;24.17
78909;BME280;68298;37.368;127.108;2023-05-24T04:58:48;100308.78;;;33.63;24.00
78909;BME280;68298;37.368;127.108;2023-05-24T05:01:19;100303.94;;;34.41;22.83
78909;BME280;68298;37.368;127.108;2023-05-24T05:03:50;100313.56;;;33.99;23.85
78909;BME280;68298;37.368;127.108;2023-05-24T05:06:20;100298.38;;;35.83;21.67
78909;BME280;68298;37.368;127.108;2023-05-24T05:08:51;100302.38;;;35.51;21.92
78909;BME280;68298;37.368;127.108;2023-05-24T05:11:22;100299.09;;;34.93;21.84
78909;BME280;68298;37.368;127.108;2023-05-24T05:13:52;100306.00;;;32.47;25.01
78909;BME280;68298;37.368;127.108;2023-05-24T05:16:23;100301.19;;;33.60;23.57
78909;BME280;68298;37.368;127.108;2023-05-24T05:18:54;100288.19;;;35.07;21.11
78909;BME280;68298;37.368;127.108;2023-05-24T05:21:24;100296.56;;;34.30;21.86
78909;BME280;68298;37.368;127.108;2023-05-24T05:23:55;100302.69;;;32.31;24.57
78909;BME280;68298;37.368;127.108;2023-05-24T05:26:29;100289.25;;;35.84;20.56
78909;BME280;68298;37.368;127.108;2023-05-24T05:28:59;100304.13;;;33.83;22.58
78909;BME280;68298;37.368;127.108;2023-05-24T05:31:30;100296.47;;;35.42;20.60
78909;BME280;68298;37.368;127.108;2023-05-24T05:34:00;100286.88;;;34.91;21.44
78909;BME280;68298;37.368;127.108;2023-05-24T05:36:31;100287.34;;;35.06;20.78
78909;BME280;68298;37.368;127.108;2023-05-24T05:39:01;100284.41;;;34.53;21.65
78909;BME280;68298;37.368;127.108;2023-05-24T05:41:32;100291.41;;;34.29;21.69
78909;BME280;68298;37.368;127.108;2023-05-24T05:44:02;100301.41;;;30.42;27.11
78909;BME280;68298;37.368;127.108;2023-05-24T05:46:33;100293.00;;;33.35;23.22
78909;BME280;68298;37.368;127.108;2023-05-24T05:49:04;100285.16;;;34.78;20.82
78909;BME280;68298;37.368;127.108;2023-05-24T05:51:35;100285.97;;;33.34;22.48
78909;BME280;68298;37.368;127.108;2023-05-24T05:54:07;100300.91;;;31.23;25.18
78909;BME280;68298;37.368;127.108;2023-05-24T05:56:43;100276.19;;;34.66;21.50
78909;BME280;68298;37.368;127.108;2023-05-24T05:59:16;100286.81;;;34.61;21.08
78909;BME280;68298;37.368;127.108;2023-05-24T06:01:48;100288.00;;;32.93;22.23
78909;BME280;68298;37.368;127.108;2023-05-24T06:04:19;100296.66;;;30.65;25.43
78909;BME280;68298;37.368;127.108;2023-05-24T06:06:49;100299.09;;;30.88;25.61
78909;BME280;68298;37.368;127.108;2023-05-24T06:09:20;100295.88;;;31.41;24.92
78909;BME280;68298;37.368;127.108;2023-05-24T06:11:51;100287.91;;;31.61;24.52
78909;BME280;68298;37.368;127.108;2023-05-24T06:14:21;100283.63;;;31.73;24.39
78909;BME280;68298;37.368;127.108;2023-05-24T06:16:53;100293.56;;;31.86;24.83
78909;BME280;68298;37.368;127.108;2023-05-24T06:19:27;100295.00;;;31.82;24.60
78909;BME280;68298;37.368;127.108;2023-05-24T06:21:58;100289.50;;;32.43;23.98
78909;BME280;68298;37.368;127.108;2023-05-24T06:24:29;100286.56;;;31.98;24.01
78909;BME280;68298;37.368;127.108;2023-05-24T06:26:59;100287.44;;;32.45;23.98
78909;BME280;68298;37.368;127.108;2023-05-24T06:29:32;100280.09;;;31.53;25.14
78909;BME280;68298;37.368;127.108;2023-05-24T06:32:03;100279.22;;;31.52;25.30
78909;BME280;68298;37.368;127.108;2023-05-24T06:34:34;100278.94;;;32.28;24.14
78909;BME280;68298;37.368;127.108;2023-05-24T06:37:04;100266.22;;;33.22;22.95
78909;BME280;68298;37.368;127.108;2023-05-24T06:39:38;100274.25;;;32.50;24.06
78909;BME280;68298;37.368;127.108;2023-05-24T06:42:09;100266.75;;;32.92;23.63
78909;BME280;68298;37.368;127.108;2023-05-24T06:44:45;100281.22;;;32.18;23.59
78909;BME280;68298;37.368;127.108;2023-05-24T06:47:15;100280.41;;;32.17;24.43
78909;BME280;68298;37.368;127.108;2023-05-24T06:49:46;100271.53;;;32.57;23.59
78909;BME280;68298;37.368;127.108;2023-05-24T06:52:17;100265.34;;;32.43;24.07
78909;BME280;68298;37.368;127.108;2023-05-24T06:54:48;100262.66;;;32.23;24.12
78909;BME280;68298;37.368;127.108;2023-05-24T06:57:19;100266.19;;;32.30;24.43
78909;BME280;68298;37.368;127.108;2023-05-24T06:59:50;100264.31;;;32.64;23.98
78909;BME280;68298;37.368;127.108;2023-05-24T07:02:20;100265.97;;;32.32;24.46
78909;BME280;68298;37.368;127.108;2023-05-24T07:04:55;100276.28;;;32.28;24.43
78909;BME280;68298;37.368;127.108;2023-05-24T07:07:25;100272.34;;;32.24;24.48
78909;BME280;68298;37.368;127.108;2023-05-24T07:09:56;100262.06;;;32.54;24.57
78909;BME280;68298;37.368;127.108;2023-05-24T07:12:26;100267.81;;;32.31;24.18
78909;BME280;68298;37.368;127.108;2023-05-24T07:14:57;100267.00;;;32.64;24.16
78909;BME280;68298;37.368;127.108;2023-05-24T07:17:27;100268.25;;;32.55;24.51
78909;BME280;68298;37.368;127.108;2023-05-24T07:19:59;100265.75;;;32.73;24.06
78909;BME280;68298;37.368;127.108;2023-05-24T07:22:30;100269.69;;;32.51;24.25
78909;BME280;68298;37.368;127.108;2023-05-24T07:25:00;100276.28;;;32.55;24.25
78909;BME280;68298;37.368;127.108;2023-05-24T07:27:31;100262.47;;;32.31;24.41
78909;BME280;68298;37.368;127.108;2023-05-24T07:30:02;100272.94;;;32.79;23.93
78909;BME280;68298;37.368;127.108;2023-05-24T07:32:44;100283.47;;;31.88;25.03
78909;BME280;68298;37.368;127.108;2023-05-24T07:35:15;100269.31;;;32.40;24.60
78909;BME280;68298;37.368;127.108;2023-05-24T07:37:45;100265.94;;;32.78;23.80
78909;BME280;68298;37.368;127.108;2023-05-24T07:40:16;100271.53;;;32.30;24.30
78909;BME280;68298;37.368;127.108;2023-05-24T07:42:47;100261.44;;;32.32;24.34
78909;BME280;68298;37.368;127.108;2023-05-24T07:45:17;100262.88;;;32.68;24.01
78909;BME280;68298;37.368;127.108;2023-05-24T07:47:48;100264.06;;;32.92;23.48
78909;BME280;68298;37.368;127.108;2023-05-24T07:50:21;100261.16;;;32.93;23.19
78909;BME280;68298;37.368;127.108;2023-05-24T07:52:51;100258.91;;;32.84;23.61
78909;BME280;68298;37.368;127.108;2023-05-24T07:55:23;100263.31;;;32.45;24.68
78909;BME280;68298;37.368;127.108;2023-05-24T07:57:53;100258.75;;;32.52;24.34
78909;BME280;68298;37.368;127.108;2023-05-24T08:00:25;100258.91;;;32.84;23.67
78909;BME280;68298;37.368;127.108;2023-05-24T08:02:56;100253.16;;;32.60;24.46
78909;BME280;68298;37.368;127.108;2023-05-24T08:05:26;100262.88;;;32.55;24.59
78909;BME280;68298;37.368;127.108;2023-05-24T08:07:57;100247.88;;;33.12;23.27
78909;BME280;68298;37.368;127.108;2023-05-24T08:10:28;100257.69;;;32.73;24.22
78909;BME280;68298;37.368;127.108;2023-05-24T08:12:58;100259.13;;;32.82;23.97
78909;BME280;68298;37.368;127.108;2023-05-24T08:15:29;100259.19;;;32.29;24.49
78909;BME280;68298;37.368;127.108;2023-05-24T08:17:59;100260.41;;;32.07;25.29
78909;BME280;68298;37.368;127.108;2023-05-24T08:20:30;100252.56;;;32.18;24.78
78909;BME280;68298;37.368;127.108;2023-05-24T08:23:22;100257.94;;;32.18;25.04
78909;BME280;68298;37.368;127.108;2023-05-24T08:25:53;100265.09;;;31.78;25.42
78909;BME280;68298;37.368;127.108;2023-05-24T08:28:23;100259.56;;;32.59;24.10
78909;BME280;68298;37.368;127.108;2023-05-24T08:30:54;100265.78;;;32.07;25.06
78909;BME280;68298;37.368;127.108;2023-05-24T08:33:25;100265.16;;;32.11;24.61
78909;BME280;68298;37.368;127.108;2023-05-24T08:35:57;100259.78;;;31.98;25.09
78909;BME280;68298;37.368;127.108;2023-05-24T08:38:28;100270.84;;;31.75;25.48
78909;BME280;68298;37.368;127.108;2023-05-24T08:40:58;100274.56;;;31.81;25.06
78909;BME280;68298;37.368;127.108;2023-05-24T08:43:29;100271.34;;;31.31;26.03
78909;BME280;68298;37.368;127.108;2023-05-24T08:46:01;100262.78;;;31.62;25.70
78909;BME280;68298;37.368;127.108;2023-05-24T08:48:51;100261.84;;;32.16;25.23
78909;BME280;68298;37.368;127.108;2023-05-24T08:51:22;100256.09;;;32.06;24.92
78909;BME280;68298;37.368;127.108;2023-05-24T08:53:53;100256.06;;;31.99;25.08
78909;BME280;68298;37.368;127.108;2023-05-24T08:56:26;100257.50;;;31.95;25.32
78909;BME280;68298;37.368;127.108;2023-05-24T08:58:57;100264.84;;;31.66;25.39
78909;BME280;68298;37.368;127.108;2023-05-24T09:01:29;100267.91;;;31.50;25.90
78909;BME280;68298;37.368;127.108;2023-05-24T09:04:04;100266.94;;;31.16;26.49
78909;BME280;68298;37.368;127.108;2023-05-24T09:06:35;100265.13;;;31.85;25.39
78909;BME280;68298;37.368;127.108;2023-05-24T09:09:06;100267.38;;;30.85;26.46
78909;BME280;68298;37.368;127.108;2023-05-24T09:11:39;100265.81;;;31.39;26.04
78909;BME280;68298;37.368;127.108;2023-05-24T09:14:12;100267.56;;;31.73;25.62
78909;BME280;68298;37.368;127.108;2023-05-24T09:16:43;100266.59;;;31.87;25.00
78909;BME280;68298;37.368;127.108;2023-05-24T09:19:14;100273.22;;;31.30;26.42
78909;BME280;68298;37.368;127.108;2023-05-24T09:21:46;100276.41;;;31.67;25.76
78909;BME280;68298;37.368;127.108;2023-05-24T09:24:18;100281.63;;;31.88;25.27
78909;BME280;68298;37.368;127.108;2023-05-24T09:26:49;100281.06;;;31.38;25.97
78909;BME280;68298;37.368;127.108;2023-05-24T09:29:22;100286.00;;;31.41;26.31
78909;BME280;68298;37.368;127.108;2023-05-24T09:31:55;100282.34;;;31.56;25.75
78909;BME280;68298;37.368;127.108;2023-05-24T09:34:26;100288.19;;;31.25;26.30
78909;BME280;68298;37.368;127.108;2023-05-24T09:36:56;100295.16;;;31.19;26.60
78909;BME280;68298;37.368;127.108;2023-05-24T09:39:27;100291.63;;;31.53;25.74
78909;BME280;68298;37.368;127.108;2023-05-24T09:41:57;100291.84;;;31.58;26.26
78909;BME280;68298;37.368;127.108;2023-05-24T09:44:28;100305.72;;;30.92;26.93
78909;BME280;68298;37.368;127.108;2023-05-24T09:47:02;100296.00;;;31.81;25.73
78909;BME280;68298;37.368;127.108;2023-05-24T09:49:36;100297.59;;;31.62;25.78
78909;BME280;68298;37.368;127.108;2023-05-24T09:52:07;100293.00;;;32.57;24.63
78909;BME280;68298;37.368;127.108;2023-05-24T09:54:38;100304.03;;;31.81;25.14
78909;BME280;68298;37.368;127.108;2023-05-24T09:57:10;100299.88;;;31.17;26.37
78909;BME280;68298;37.368;127.108;2023-05-24T09:59:41;100296.38;;;31.71;25.70
78909;BME280;68298;37.368;127.108;2023-05-24T10:02:13;100297.09;;;32.00;25.24
78909;BME280;68298;37.368;127.108;2023-05-24T10:04:44;100306.97;;;31.99;25.14
78909;BME280;68298;37.368;127.108;2023-05-24T10:07:16;100304.38;;;32.39;24.57
78909;BME280;68298;37.368;127.108;2023-05-24T10:09:47;100310.09;;;32.23;24.54
78909;BME280;68298;37.368;127.108;2023-05-24T10:12:19;100314.03;;;32.60;24.59
78909;BME280;68298;37.368;127.108;2023-05-24T10:14:51;100317.09;;;32.17;25.52
78909;BME280;68298;37.368;127.108;2023-05-24T10:17:26;100315.91;;;32.39;24.83
78909;BME280;68298;37.368;127.108;2023-05-24T10:19:57;100319.59;;;32.38;24.60
78909;BME280;68298;37.368;127.108;2023-05-24T10:22:28;100328.09;;;32.49;24.69
78909;BME280;68298;37.368;127.108;2023-05-24T10:24:59;100317.13;;;32.50;24.29
78909;BME280;68298;37.368;127.108;2023-05-24T10:27:30;100330.31;;;32.05;25.10
78909;BME280;68298;37.368;127.108;2023-05-24T10:32:51;100325.59;;;32.54;24.43
78909;BME280;68298;37.368;127.108;2023-05-24T10:35:23;100328.63;;;31.91;25.28
78909;BME280;68298;37.368;127.108;2023-05-24T10:37:56;100331.13;;;32.26;24.83
78909;BME280;68298;37.368;127.108;2023-05-24T10:40:26;100332.75;;;32.13;25.04
78909;BME280;68298;37.368;127.108;2023-05-24T10:42:57;100330.09;;;32.07;24.82
78909;BME280;68298;37.368;127.108;2023-05-24T10:51:09;100331.34;;;32.57;24.35
78909;BME280;68298;37.368;127.108;2023-05-24T10:53:50;100340.00;;;32.26;25.11
78909;BME280;68298;37.368;127.108;2023-05-24T10:56:21;100342.72;;;32.46;24.89
78909;BME280;68298;37.368;127.108;2023-05-24T11:01:29;100349.28;;;32.30;24.58
78909;BME280;68298;37.368;127.108;2023-05-24T11:04:14;100345.75;;;32.23;24.35
78909;BME280;68298;37.368;127.108;2023-05-24T11:07:22;100345.75;;;32.23;24.95
78909;BME280;68298;37.368;127.108;2023-05-24T11:09:47;100343.91;;;32.17;25.01
78909;BME280;68298;37.368;127.108;2023-05-24T11:12:29;100351.66;;;31.85;25.54
78909;BME280;68298;37.368;127.108;2023-05-24T11:15:10;100355.59;;;31.83;25.87
78909;BME280;68298;37.368;127.108;2023-05-24T11:21:00;100355.66;;;32.23;24.95
78909;BME280;68298;37.368;127.108;2023-05-24T11:23:32;100355.47;;;32.31;24.70
78909;BME280;68298;37.368;127.108;2023-05-24T11:26:06;100365.53;;;32.09;25.32
78909;BME280;68298;37.368;127.108;2023-05-24T11:28:36;100374.59;;;32.08;24.75
78909;BME280;68298;37.368;127.108;2023-05-24T11:31:08;100359.56;;;32.07;24.83
78909;BME280;68298;37.368;127.108;2023-05-24T11:33:40;100367.03;;;32.38;24.46
78909;BME280;68298;37.368;127.108;2023-05-24T11:36:11;100376.84;;;31.98;25.59
78909;BME280;68298;37.368;127.108;2023-05-24T11:38:41;100379.72;;;31.89;25.57
78909;BME280;68298;37.368;127.108;2023-05-24T11:41:12;100383.34;;;31.75;25.40
78909;BME280;68298;37.368;127.108;2023-05-24T11:43:44;100388.22;;;32.13;25.03
78909;BME280;68298;37.368;127.108;2023-05-24T11:46:15;100389.22;;;31.99;25.30
78909;BME280;68298;37.368;127.108;2023-05-24T11:48:58;100392.50;;;31.87;25.85
78909;BME280;68298;37.368;127.108;2023-05-24T11:51:31;100399.53;;;32.08;24.94
78909;BME280;68298;37.368;127.108;2023-05-24T11:54:01;100399.50;;;31.88;25.40
78909;BME280;68298;37.368;127.108;2023-05-24T11:56:32;100408.22;;;32.24;24.95
78909;BME280;68298;37.368;127.108;2023-05-24T11:59:14;100414.44;;;32.31;24.72
78909;BME280;68298;37.368;127.108;2023-05-24T12:01:45;100405.66;;;31.41;25.72
78909;BME280;68298;37.368;127.108;2023-05-24T12:04:15;100417.47;;;32.14;24.75
78909;BME280;68298;37.368;127.108;2023-05-24T12:06:46;100423.09;;;31.72;25.79
78909;BME280;68298;37.368;127.108;2023-05-24T12:09:17;100425.28;;;31.96;25.31
78909;BME280;68298;37.368;127.108;2023-05-24T12:11:49;100430.88;;;32.08;25.16
78909;BME280;68298;37.368;127.108;2023-05-24T12:14:21;100430.59;;;31.83;25.43
78909;BME280;68298;37.368;127.108;2023-05-24T12:16:55;100438.88;;;31.53;26.05
78909;BME280;68298;37.368;127.108;2023-05-24T12:19:30;100438.25;;;31.92;25.50
78909;BME280;68298;37.368;127.108;2023-05-24T12:22:05;100446.16;;;32.14;25.45
78909;BME280;68298;37.368;127.108;2023-05-24T12:24:36;100448.00;;;32.07;25.05
78909;BME280;68298;37.368;127.108;2023-05-24T12:27:07;100446.69;;;32.51;24.20
78909;BME280;68298;37.368;127.108;2023-05-24T12:29:39;100451.94;;;32.17;25.07
78909;BME280;68298;37.368;127.108;2023-05-24T12:32:10;100452.84;;;31.83;25.46
78909;BME280;68298;37.368;127.108;2023-05-24T12:34:43;100451.44;;;31.94;25.27
78909;BME280;68298;37.368;127.108;2023-05-24T12:37:14;100464.34;;;31.77;25.38
78909;BME280;68298;37.368;127.108;2023-05-24T12:39:44;100465.28;;;31.63;25.86
78909;BME280;68298;37.368;127.108;2023-05-24T12:42:15;100464.84;;;32.62;24.39
78909;BME280;68298;37.368;127.108;2023-05-24T12:45:04;100466.38;;;32.23;24.97
78909;BME280;68298;37.368;127.108;2023-05-24T12:47:34;100463.16;;;32.48;24.49
78909;BME280;68298;37.368;127.108;2023-05-24T12:50:06;100463.78;;;32.36;24.41
78909;BME280;68298;37.368;127.108;2023-05-24T12:52:36;100469.50;;;32.33;24.63
78909;BME280;68298;37.368;127.108;2023-05-24T12:55:07;100472.44;;;31.90;25.47
78909;BME280;68298;37.368;127.108;2023-05-24T12:57:38;100475.25;;;32.17;25.04
78909;BME280;68298;37.368;127.108;2023-05-24T13:00:10;100482.19;;;32.59;23.87
78909;BME280;68298;37.368;127.108;2023-05-24T13:02:41;100479.16;;;31.73;25.43
78909;BME280;68298;37.368;127.108;2023-05-24T13:05:12;100484.38;;;32.36;24.87
78909;BME280;68298;37.368;127.108;2023-05-24T13:07:43;100483.28;;;32.17;24.80
78909;BME280;68298;37.368;127.108;2023-05-24T13:10:14;100488.72;;;32.43;24.31
78909;BME280;68298;37.368;127.108;2023-05-24T13:12:45;100484.97;;;32.31;24.60
78909;BME280;68298;37.368;127.108;2023-05-24T13:15:16;100484.91;;;32.18;24.64
78909;BME280;68298;37.368;127.108;2023-05-24T13:17:48;100491.97;;;32.32;24.71
78909;BME280;68298;37.368;127.108;2023-05-24T13:20:19;100488.03;;;32.22;24.89
78909;BME280;68298;37.368;127.108;2023-05-24T13:22:51;100484.28;;;32.09;24.88
78909;BME280;68298;37.368;127.108;2023-05-24T13:25:22;100495.16;;;32.56;24.58
78909;BME280;68298;37.368;127.108;2023-05-24T13:27:52;100498.88;;;32.00;25.13